createdAt,value
2022-12-22T00:01:52.188Z,33.08
2022-12-22T00:04:37.404Z,35.30
2022-12-22T00:07:22.509Z,40.95
2022-12-22T00:10:07.784Z,38.67
2022-12-22T00:12:53.158Z,32.90
2022-12-22T00:15:38.928Z,40.13
2022-12-22T00:18:24.541Z,32.40
2022-12-22T00:21:09.725Z,34.40
2022-12-22T00:23:54.845Z,30.25
2022-12-22T00:26:40.082Z,30.35
2022-12-22T00:29:25.665Z,31.98
2022-12-22T00:32:10.854Z,31.15
2022-12-22T00:35:00.221Z,33.95
2022-12-22T00:37:51.373Z,33.33
2022-12-22T00:43:22.931Z,24.77
2022-12-22T00:46:09.243Z,28.20
2022-12-22T00:48:54.531Z,30.80
2022-12-22T00:51:39.593Z,28.00
2022-12-22T00:54:28.120Z,30.27
2022-12-22T00:57:13.401Z,28.35
2022-12-22T00:59:59.019Z,30.05
2022-12-22T01:02:43.980Z,30.42
2022-12-22T01:05:29.134Z,29.88
2022-12-22T01:08:14.806Z,27.10
2022-12-22T01:11:00.436Z,28.13
2022-12-22T01:13:46.690Z,27.15
2022-12-22T01:16:32.303Z,24.35
2022-12-22T01:19:17.541Z,27.27
2022-12-22T01:22:02.925Z,27.50
2022-12-22T01:24:48.748Z,27.40
2022-12-22T01:27:34.531Z,25.00
2022-12-22T01:30:20.255Z,25.75
2022-12-22T01:33:05.313Z,24.65
2022-12-22T01:35:53.026Z,25.40
2022-12-22T01:38:38.273Z,23.52
2022-12-22T01:41:24.374Z,23.50
2022-12-22T01:44:09.522Z,24.00
2022-12-22T01:46:59.744Z,25.25
2022-12-22T01:49:52.640Z,23.10
2022-12-22T01:52:39.256Z,23.85
2022-12-22T01:55:27.023Z,23.05
2022-12-22T01:58:12.253Z,24.30
2022-12-22T02:00:58.014Z,23.83
2022-12-22T02:03:43.466Z,23.17
2022-12-22T02:06:45.957Z,24.77
2022-12-22T02:09:43.280Z,23.35
2022-12-22T02:13:02.894Z,24.08
2022-12-22T02:15:53.635Z,22.00
2022-12-22T02:18:45.026Z,21.38
2022-12-22T02:21:32.571Z,23.33
2022-12-22T02:24:37.060Z,21.95
2022-12-22T02:27:22.321Z,23.42
2022-12-22T02:30:13.244Z,21.40
2022-12-22T02:33:07.090Z,20.70
2022-12-22T02:36:16.868Z,19.77
2022-12-22T02:39:08.239Z,19.27
2022-12-22T02:42:15.148Z,19.58
2022-12-22T02:45:33.113Z,20.27
2022-12-22T02:48:25.963Z,19.95
2022-12-22T02:51:16.089Z,20.27
2022-12-22T02:54:01.373Z,19.60
2022-12-22T02:56:46.571Z,19.83
2022-12-22T02:59:31.786Z,20.45
2022-12-22T03:02:17.328Z,20.15
2022-12-22T03:05:02.268Z,20.10
2022-12-22T03:07:47.083Z,17.60
2022-12-22T03:10:32.224Z,18.52
2022-12-22T03:13:18.624Z,18.27
2022-12-22T03:16:03.627Z,19.27
2022-12-22T03:18:48.770Z,18.92
2022-12-22T03:21:34.047Z,17.90
2022-12-22T03:24:19.119Z,16.75
2022-12-22T03:26:45.616Z,18.63
2022-12-22T03:29:12.186Z,18.95
2022-12-22T03:31:38.733Z,19.75
2022-12-22T03:34:05.286Z,20.05
2022-12-22T03:36:31.861Z,20.00
2022-12-22T03:38:58.393Z,21.13
2022-12-22T03:41:43.542Z,22.95
2022-12-22T03:44:28.713Z,21.48
2022-12-22T03:46:55.295Z,23.25
2022-12-22T03:49:22.989Z,23.85
2022-12-22T03:51:51.031Z,23.13
2022-12-22T03:54:22.729Z,23.10
2022-12-22T03:56:49.730Z,29.85
2022-12-22T03:59:16.996Z,27.95
2022-12-22T04:01:46.471Z,26.88
2022-12-22T04:04:14.951Z,25.55
2022-12-22T04:06:41.709Z,26.17
2022-12-22T04:09:08.439Z,27.83
2022-12-22T04:11:54.157Z,29.65
2022-12-22T04:14:21.694Z,31.27
2022-12-22T04:16:48.725Z,24.50
2022-12-22T04:19:16.138Z,26.13
2022-12-22T04:21:43.164Z,25.48
2022-12-22T04:24:11.369Z,25.88
2022-12-22T04:26:38.089Z,26.63
2022-12-22T04:29:04.686Z,27.15
2022-12-22T04:31:31.343Z,25.65
2022-12-22T04:33:58.567Z,25.60
2022-12-22T04:36:25.091Z,32.85
2022-12-22T04:38:51.591Z,26.05
2022-12-22T04:41:18.156Z,28.98
2022-12-22T04:43:44.700Z,35.05
2022-12-22T04:46:11.340Z,34.78
2022-12-22T04:48:37.859Z,27.65
2022-12-22T04:51:04.595Z,32.40
2022-12-22T04:53:31.958Z,32.10
2022-12-22T04:56:04.135Z,32.75
2022-12-22T04:58:31.294Z,31.17
2022-12-22T05:00:58.254Z,27.90
2022-12-22T05:03:24.947Z,31.02
2022-12-22T05:05:51.476Z,31.08
2022-12-22T05:08:17.985Z,33.10
2022-12-22T05:10:44.703Z,29.13
2022-12-22T05:13:11.248Z,32.47
2022-12-22T05:15:37.807Z,29.50
2022-12-22T05:18:04.589Z,29.20
2022-12-22T05:20:32.021Z,31.48
2022-12-22T05:22:58.884Z,30.58
2022-12-22T05:25:29.951Z,31.63
2022-12-22T05:27:59.492Z,32.75
2022-12-22T05:30:26.439Z,30.63
2022-12-22T05:32:53.015Z,31.20
2022-12-22T05:35:19.596Z,30.48
2022-12-22T05:37:46.144Z,29.80
2022-12-22T05:40:12.812Z,28.67
2022-12-22T05:42:39.615Z,30.30
2022-12-22T05:45:18.126Z,30.60
2022-12-22T05:47:47.543Z,34.75
2022-12-22T05:50:15.398Z,34.38
2022-12-22T05:52:43.919Z,35.65
2022-12-22T05:55:11.130Z,31.23
2022-12-22T05:57:38.418Z,30.60
2022-12-22T06:00:06.940Z,30.85
2022-12-22T06:02:39.316Z,36.25
2022-12-22T06:05:06.658Z,34.28
2022-12-22T06:07:33.124Z,32.35
2022-12-22T06:09:59.730Z,38.40
2022-12-22T06:12:26.335Z,31.95
2022-12-22T06:14:52.840Z,32.60
2022-12-22T06:17:19.413Z,33.22
2022-12-22T06:19:45.920Z,33.63
2022-12-22T06:22:12.431Z,33.88
2022-12-22T06:24:38.998Z,34.45
2022-12-22T06:27:05.680Z,34.67
2022-12-22T06:29:32.212Z,30.20
2022-12-22T06:31:58.739Z,32.03
2022-12-22T06:34:25.231Z,37.20
2022-12-22T06:36:51.766Z,34.17
2022-12-22T06:39:18.293Z,37.70
2022-12-22T06:42:03.503Z,36.13
2022-12-22T06:44:30.022Z,30.70
2022-12-22T06:46:56.680Z,34.15
2022-12-22T06:49:23.497Z,35.85
2022-12-22T06:51:50.388Z,35.13
2022-12-22T06:54:22.253Z,31.02
2022-12-22T06:56:52.357Z,31.17
2022-12-22T06:59:19.316Z,38.50
2022-12-22T07:01:47.083Z,33.38
2022-12-22T07:04:19.676Z,33.85
2022-12-22T07:06:47.880Z,30.88
2022-12-22T07:09:14.557Z,29.80
2022-12-22T07:11:41.559Z,28.60
2022-12-22T07:14:08.105Z,33.55
2022-12-22T07:16:34.785Z,33.25
2022-12-22T07:19:01.377Z,32.83
2022-12-22T07:21:28.025Z,32.92
2022-12-22T07:23:54.516Z,27.20
2022-12-22T07:26:21.083Z,30.50
2022-12-22T07:28:47.581Z,39.03
2022-12-22T07:31:16.029Z,28.38
2022-12-22T07:33:42.586Z,30.25
2022-12-22T07:36:14.618Z,31.67
2022-12-22T07:38:42.673Z,29.90
2022-12-22T07:41:28.941Z,27.42
2022-12-22T07:43:57.471Z,34.20
2022-12-22T07:46:25.344Z,30.20
2022-12-22T07:49:10.644Z,31.10
2022-12-22T07:51:39.238Z,29.15
2022-12-22T07:54:06.067Z,26.20
2022-12-22T07:56:32.621Z,28.23
2022-12-22T07:58:59.522Z,26.70
2022-12-22T08:01:26.682Z,27.42
2022-12-22T08:03:53.351Z,30.48
2022-12-22T08:06:20.838Z,30.05
2022-12-22T08:08:47.424Z,27.05
2022-12-22T08:11:13.983Z,26.55
2022-12-22T08:13:40.623Z,26.13
2022-12-22T08:16:09.236Z,30.90
2022-12-22T08:18:36.024Z,27.65
2022-12-22T08:21:03.855Z,28.08
2022-12-22T08:23:31.028Z,23.55
2022-12-22T08:26:12.136Z,30.98
2022-12-22T08:28:47.533Z,26.20
2022-12-22T08:31:14.316Z,28.15
2022-12-22T08:33:40.837Z,30.63
2022-12-22T08:36:08.571Z,28.80
2022-12-22T08:38:36.791Z,27.00
2022-12-22T08:41:03.380Z,25.73
2022-12-22T08:43:31.470Z,21.52
2022-12-22T08:45:57.992Z,26.23
2022-12-22T08:48:24.539Z,25.42
2022-12-22T08:50:51.068Z,24.88
2022-12-22T08:53:37.610Z,24.80
2022-12-22T08:56:04.336Z,24.08
2022-12-22T08:58:31.934Z,24.92
2022-12-22T09:00:59.561Z,20.40
2022-12-22T09:03:26.181Z,24.88
2022-12-22T09:05:52.737Z,24.50
2022-12-22T09:08:19.339Z,22.17
2022-12-22T09:10:46.218Z,24.30
2022-12-22T09:13:12.826Z,26.73
2022-12-22T09:15:39.362Z,24.73
2022-12-22T09:18:05.932Z,27.20
2022-12-22T09:20:35.071Z,21.55
2022-12-22T09:23:01.672Z,21.75
2022-12-22T09:25:28.327Z,20.67
2022-12-22T09:27:54.912Z,22.10
2022-12-22T09:30:21.519Z,21.05
2022-12-22T09:32:48.188Z,21.77
2022-12-22T09:35:14.904Z,22.02
2022-12-22T09:37:41.846Z,18.85
2022-12-22T09:40:09.157Z,19.83
2022-12-22T09:42:35.813Z,21.70
2022-12-22T09:45:02.736Z,20.50
2022-12-22T09:47:38.793Z,24.10
2022-12-22T09:50:08.776Z,23.38
2022-12-22T09:52:35.351Z,18.80
2022-12-22T09:55:13.458Z,20.17
2022-12-22T09:57:40.016Z,21.58
2022-12-22T10:00:14.457Z,20.83
2022-12-22T10:03:05.500Z,17.67
2022-12-22T10:05:39.547Z,19.80
2022-12-22T10:08:14.635Z,17.83
2022-12-22T10:10:41.731Z,12.80
2022-12-22T10:13:17.012Z,18.15
2022-12-22T10:15:44.425Z,17.83
2022-12-22T10:18:23.973Z,19.08
2022-12-22T10:21:30.286Z,15.73
2022-12-22T10:23:56.868Z,17.45
2022-12-22T10:26:31.463Z,15.52
2022-12-22T10:29:04.607Z,18.77
2022-12-22T10:31:35.794Z,16.75
2022-12-22T10:34:13.012Z,17.65
2022-12-22T10:36:40.043Z,20.05
2022-12-22T10:39:10.922Z,19.33
2022-12-22T10:41:43.430Z,18.08
2022-12-22T10:44:16.113Z,19.42
2022-12-22T10:46:45.005Z,20.05
2022-12-22T10:49:17.313Z,18.65
2022-12-22T10:51:46.822Z,19.73
2022-12-22T10:54:33.791Z,18.17
2022-12-22T10:57:34.726Z,18.10
2022-12-22T11:00:09.800Z,16.60
2022-12-22T11:02:38.487Z,17.08
2022-12-22T11:05:08.200Z,17.98
2022-12-22T11:07:45.473Z,17.58
2022-12-22T11:10:39.757Z,16.73
2022-12-22T11:13:22.149Z,16.08
2022-12-22T11:16:28.411Z,18.25
2022-12-22T11:19:20.768Z,21.00
2022-12-22T11:21:56.327Z,17.35
2022-12-22T11:24:31.458Z,16.88
2022-12-22T11:27:19.750Z,17.40
2022-12-22T11:30:04.616Z,17.15
2022-12-22T11:32:53.670Z,17.23
2022-12-22T11:35:44.950Z,16.73
2022-12-22T11:38:18.557Z,17.65
2022-12-22T11:40:48.314Z,17.23
2022-12-22T11:43:20.802Z,17.17
2022-12-22T11:45:54.050Z,18.25
2022-12-22T11:48:31.121Z,20.20
2022-12-22T11:51:13.712Z,17.88
2022-12-22T11:54:10.822Z,18.58
2022-12-22T11:56:39.871Z,17.98
2022-12-22T11:59:15.970Z,18.10
2022-12-22T12:02:04.233Z,18.20
2022-12-22T12:04:49.803Z,17.77
2022-12-22T12:07:25.943Z,18.05
2022-12-22T12:10:17.380Z,19.73
2022-12-22T12:12:50.220Z,19.58
2022-12-22T12:15:28.201Z,19.70
2022-12-22T12:18:03.082Z,19.80
2022-12-22T12:20:46.305Z,18.67
2022-12-22T12:23:12.892Z,19.30
2022-12-22T12:25:55.702Z,19.02
2022-12-22T12:28:28.217Z,24.65
2022-12-22T12:30:59.825Z,21.15
2022-12-22T12:33:36.602Z,23.15
2022-12-22T12:36:15.678Z,22.63
2022-12-22T12:39:33.543Z,20.77
2022-12-22T12:42:26.364Z,23.98
2022-12-22T12:44:53.543Z,24.05
2022-12-22T12:47:34.463Z,21.50
2022-12-22T12:50:28.926Z,22.55
2022-12-22T12:52:55.329Z,22.27
2022-12-22T12:55:31.562Z,21.30
2022-12-22T12:58:00.988Z,22.23
2022-12-22T13:00:33.678Z,20.88
2022-12-22T13:03:20.006Z,22.08
2022-12-22T13:06:02.321Z,25.70
2022-12-22T13:10:58.803Z,25.02
2022-12-22T13:13:25.357Z,21.20
2022-12-22T13:16:00.776Z,19.58
2022-12-22T13:18:30.458Z,23.30
2022-12-22T13:21:50.915Z,23.77
2022-12-22T13:24:23.012Z,19.13
2022-12-22T13:26:43.539Z,21.80
2022-12-22T13:29:35.874Z,27.58
2022-12-22T13:32:12.250Z,24.02
2022-12-22T13:35:28.914Z,23.40
2022-12-22T13:37:41.681Z,27.52
2022-12-22T13:40:16.105Z,21.58
2022-12-22T13:42:49.208Z,18.95
2022-12-22T13:45:37.975Z,22.52
2022-12-22T13:48:30.478Z,25.90
2022-12-22T13:51:00.263Z,21.50
2022-12-22T13:56:26.036Z,18.63
2022-12-22T13:58:59.611Z,18.73
2022-12-22T14:01:26.361Z,20.08
2022-12-22T14:04:03.592Z,17.05
2022-12-22T14:06:35.747Z,15.85
2022-12-22T14:09:15.882Z,17.52
2022-12-22T14:11:55.270Z,15.50
2022-12-22T14:14:27.524Z,17.63
2022-12-22T14:16:56.876Z,15.98
2022-12-22T14:19:24.937Z,13.75
2022-12-22T14:22:05.537Z,14.45
2022-12-22T14:24:38.255Z,15.45
2022-12-22T14:27:06.740Z,15.73
2022-12-22T14:29:33.404Z,16.73
2022-12-22T14:32:02.048Z,13.30
2022-12-22T14:34:31.411Z,13.95
2022-12-22T14:36:58.675Z,10.18
2022-12-22T14:39:27.503Z,12.73
2022-12-22T14:41:56.144Z,10.98
2022-12-22T14:44:22.707Z,13.30
2022-12-22T14:47:06.301Z,10.35
2022-12-22T14:49:33.606Z,10.07
2022-12-22T14:52:07.554Z,9.75
2022-12-22T14:54:34.598Z,9.82
2022-12-22T14:57:15.560Z,11.05
2022-12-22T15:00:01.454Z,8.88
2022-12-22T15:02:39.996Z,8.02
2022-12-22T15:05:16.156Z,8.93
2022-12-22T15:10:49.816Z,6.97
2022-12-22T15:13:23.025Z,8.32
2022-12-22T15:15:50.807Z,8.77
2022-12-22T15:18:17.863Z,7.88
2022-12-22T15:20:44.590Z,9.20
2022-12-22T15:23:17.123Z,8.82
2022-12-22T15:25:44.454Z,9.70
2022-12-22T15:28:11.050Z,9.88
2022-12-22T15:30:37.910Z,10.95
2022-12-22T15:33:04.588Z,10.98
2022-12-22T15:35:33.251Z,10.50
2022-12-22T15:38:00.119Z,11.65
2022-12-22T15:40:27.661Z,12.40
2022-12-22T15:42:54.560Z,11.55
2022-12-22T15:45:22.196Z,9.77
2022-12-22T15:47:51.616Z,9.68
2022-12-22T15:50:20.886Z,12.13
2022-12-22T15:52:51.649Z,11.63
2022-12-22T15:55:19.250Z,11.52
2022-12-22T15:57:47.470Z,10.75
2022-12-22T16:00:15.226Z,9.93
2022-12-22T16:02:41.902Z,9.98
2022-12-22T16:05:09.604Z,10.57
2022-12-22T16:07:37.233Z,10.55
2022-12-22T16:10:05.070Z,11.40
2022-12-22T16:12:32.335Z,11.52
2022-12-22T16:14:59.534Z,13.43
2022-12-22T16:17:27.676Z,14.38
2022-12-22T16:19:54.232Z,15.32
2022-12-22T16:22:29.913Z,14.40
2022-12-22T16:24:56.626Z,16.35
2022-12-22T16:27:23.185Z,16.02
2022-12-22T16:29:52.069Z,17.85
2022-12-22T16:32:29.836Z,17.98
2022-12-22T16:35:01.327Z,17.40
2022-12-22T16:37:27.871Z,17.75
2022-12-22T16:39:54.549Z,16.02
2022-12-22T16:45:07.220Z,17.00
2022-12-22T16:47:35.472Z,18.13
2022-12-22T16:50:02.089Z,17.65
2022-12-22T16:52:35.552Z,18.70
2022-12-22T16:55:02.319Z,18.55
2022-12-22T16:57:28.999Z,17.98
2022-12-22T16:59:55.746Z,18.48
2022-12-22T17:02:29.615Z,21.83
2022-12-22T17:04:58.123Z,20.30
2022-12-22T17:07:24.686Z,24.52
2022-12-22T17:09:54.272Z,23.95
2022-12-22T17:12:24.424Z,22.27
2022-12-22T17:14:52.385Z,23.67
2022-12-22T17:17:30.902Z,22.77
2022-12-22T17:19:59.869Z,25.38
2022-12-22T17:22:28.747Z,30.05
2022-12-22T17:24:57.433Z,26.23
2022-12-22T17:27:27.843Z,29.02
2022-12-22T17:29:55.277Z,23.10
2022-12-22T17:32:22.015Z,27.95
2022-12-22T17:34:49.383Z,27.50
2022-12-22T17:37:17.778Z,28.85
2022-12-22T17:39:45.771Z,27.88
2022-12-22T17:42:22.858Z,25.98
2022-12-22T17:44:50.342Z,28.05
2022-12-22T17:47:29.075Z,33.13
2022-12-22T17:52:27.033Z,31.38
2022-12-22T17:54:53.959Z,33.58
2022-12-22T17:57:32.922Z,29.25
2022-12-22T18:00:00.541Z,38.50
2022-12-22T18:02:27.279Z,34.03
2022-12-22T18:04:53.881Z,38.42
2022-12-22T18:07:22.674Z,41.03
2022-12-22T18:09:50.130Z,38.88
2022-12-22T18:12:21.113Z,40.15
2022-12-22T18:14:49.049Z,39.25
2022-12-22T18:17:31.643Z,36.92
2022-12-22T18:20:01.977Z,35.95
2022-12-22T18:22:29.545Z,35.03
2022-12-22T18:24:56.435Z,33.75
2022-12-22T18:27:23.229Z,26.23
2022-12-22T18:29:49.899Z,31.95
2022-12-22T18:32:25.253Z,30.83
2022-12-22T18:34:53.848Z,31.10
2022-12-22T18:37:20.355Z,35.17
2022-12-22T18:39:46.978Z,28.10
2022-12-22T18:42:20.697Z,34.33
2022-12-22T18:44:47.658Z,30.17
2022-12-22T18:47:14.457Z,31.52
2022-12-22T18:49:41.030Z,27.17
2022-12-22T18:52:21.970Z,31.40
2022-12-22T18:54:49.132Z,33.58
2022-12-22T18:57:19.667Z,26.90
2022-12-22T18:59:47.564Z,36.08
2022-12-22T19:02:29.097Z,31.30
2022-12-22T19:04:56.410Z,32.95
2022-12-22T19:07:24.983Z,29.88
2022-12-22T19:09:51.961Z,32.03
2022-12-22T19:12:21.985Z,34.15
2022-12-22T19:14:51.729Z,36.28
2022-12-22T19:17:20.611Z,32.92
2022-12-22T19:19:47.335Z,38.10
2022-12-22T19:22:15.294Z,34.50
2022-12-22T19:24:44.752Z,34.10
2022-12-22T19:27:18.064Z,41.10
2022-12-22T19:29:45.161Z,33.30
2022-12-22T19:32:23.267Z,40.67
2022-12-22T19:34:50.016Z,34.97
2022-12-22T19:37:16.640Z,35.90
2022-12-22T19:39:43.163Z,34.35
2022-12-22T19:42:17.373Z,37.53
2022-12-22T19:44:44.240Z,32.00
2022-12-22T19:47:22.109Z,31.63
2022-12-22T19:49:48.666Z,35.22
2022-12-22T19:52:15.235Z,38.17
2022-12-22T19:54:41.751Z,39.20
2022-12-22T19:57:18.992Z,39.70
2022-12-22T19:59:47.304Z,34.70
2022-12-22T20:02:26.576Z,39.53
2022-12-22T20:04:54.386Z,39.40
2022-12-22T20:07:22.778Z,43.95
2022-12-22T20:09:49.330Z,44.75
2022-12-22T20:12:37.471Z,42.85
2022-12-22T20:15:32.577Z,43.95
2022-12-22T20:17:59.119Z,43.58
2022-12-22T20:20:36.816Z,39.50
2022-12-22T20:23:06.844Z,43.17
2022-12-22T20:25:40.713Z,43.53
2022-12-22T20:28:37.593Z,42.30
2022-12-22T20:31:04.922Z,44.00
2022-12-22T20:33:31.756Z,41.60
2022-12-22T20:36:00.418Z,48.97
2022-12-22T20:38:38.504Z,51.42
2022-12-22T20:41:07.402Z,46.63
2022-12-22T20:43:35.157Z,46.13
2022-12-22T20:46:04.324Z,47.53
2022-12-22T20:48:44.927Z,43.05
2022-12-22T20:51:15.625Z,46.00
2022-12-22T20:53:43.399Z,47.22
2022-12-22T20:56:28.190Z,47.58
2022-12-22T20:58:55.079Z,44.83
2022-12-22T21:01:21.794Z,49.40
2022-12-22T21:03:48.362Z,50.53
2022-12-22T21:06:29.201Z,46.85
2022-12-22T21:08:58.111Z,50.45
2022-12-22T21:11:25.521Z,43.22
2022-12-22T21:13:52.272Z,42.83
2022-12-22T21:16:23.075Z,42.78
2022-12-22T21:18:50.708Z,43.92
2022-12-22T21:21:17.293Z,41.70
2022-12-22T21:23:43.872Z,45.08
2022-12-22T21:26:31.740Z,41.05
2022-12-22T21:28:59.937Z,42.92
2022-12-22T21:31:26.532Z,41.80
2022-12-22T21:33:53.079Z,41.33
2022-12-22T21:36:24.057Z,43.90
2022-12-22T21:39:32.501Z,49.78
2022-12-22T21:42:01.941Z,41.70
2022-12-22T21:44:29.704Z,48.05
2022-12-22T21:46:56.377Z,39.15
2022-12-22T21:49:24.598Z,45.15
2022-12-22T21:51:52.465Z,37.90
2022-12-22T21:54:20.232Z,39.40
2022-12-22T21:56:47.102Z,44.05
2022-12-22T21:59:14.172Z,44.95
2022-12-22T22:01:41.384Z,42.60
2022-12-22T22:04:08.728Z,37.42
2022-12-22T22:06:35.306Z,38.55
2022-12-22T22:09:04.687Z,38.28
2022-12-22T22:11:31.788Z,37.47
2022-12-22T22:13:58.275Z,33.67
2022-12-22T22:16:24.920Z,39.67
2022-12-22T22:18:51.615Z,39.63
2022-12-22T22:21:18.197Z,37.83
2022-12-22T22:23:44.721Z,36.33
2022-12-22T22:26:11.269Z,36.50
2022-12-22T22:28:38.119Z,34.88
2022-12-22T22:31:11.689Z,32.97
2022-12-22T22:33:38.382Z,33.25
2022-12-22T22:36:07.533Z,33.35
2022-12-22T22:38:34.314Z,30.58
2022-12-22T22:41:00.916Z,30.30
2022-12-22T22:43:27.462Z,31.92
2022-12-22T22:45:54.006Z,31.13
2022-12-22T22:48:21.971Z,32.72
2022-12-22T22:50:49.099Z,30.30
2022-12-22T22:53:15.871Z,31.33
2022-12-22T22:55:42.589Z,33.65
2022-12-22T22:58:11.401Z,33.50
2022-12-22T23:00:38.900Z,30.08
2022-12-22T23:03:05.658Z,31.92
2022-12-22T23:05:32.487Z,32.75
2022-12-22T23:07:59.029Z,32.05
2022-12-22T23:10:25.545Z,30.13
2022-12-22T23:12:52.182Z,29.70
2022-12-22T23:15:18.752Z,32.75
2022-12-22T23:17:45.288Z,33.03
2022-12-22T23:20:11.864Z,27.30
2022-12-22T23:22:38.743Z,28.42
2022-12-22T23:25:05.471Z,28.13
2022-12-22T23:27:32.038Z,29.05
2022-12-22T23:29:58.573Z,27.27
2022-12-22T23:32:25.128Z,28.52
2022-12-22T23:34:52.140Z,26.77
2022-12-22T23:37:19.568Z,25.85
2022-12-22T23:39:46.765Z,26.33
2022-12-22T23:42:13.359Z,24.02
2022-12-22T23:44:39.899Z,28.50
2022-12-22T23:47:06.920Z,25.15
2022-12-22T23:49:33.663Z,26.65
2022-12-22T23:52:00.228Z,26.27
2022-12-22T23:54:26.739Z,25.58
2022-12-22T23:56:53.274Z,25.80
2022-12-22T23:59:19.783Z,24.67
